sensor_id;sensor_type;location;lat;lon;timestamp;P1;durP1;ratioP1;P2;durP2;ratioP2
13335;SDS011;6737;51.480;11.962;2023-09-12T00:02:05;18.08;;;6.32;;
13335;SDS011;6737;51.480;11.962;2023-09-12T00:04:30;11.00;;;6.32;;
13335;SDS011;6737;51.480;11.962;2023-09-12T00:06:56;16.08;;;6.00;;
13335;SDS011;6737;51.480;11.962;2023-09-12T00:09:22;9.73;;;6.28;;
13335;SDS011;6737;51.480;11.962;2023-09-12T00:11:48;8.65;;;5.90;;
13335;SDS011;6737;51.480;11.962;2023-09-12T00:14:17;8.68;;;6.07;;
13335;SDS011;6737;51.480;11.962;2023-09-12T00:16:43;12.27;;;6.25;;
13335;SDS011;6737;51.480;11.962;2023-09-12T00:19:09;7.85;;;5.70;;
13335;SDS011;6737;51.480;11.962;2023-09-12T00:21:35;9.02;;;5.30;;
13335;SDS011;6737;51.480;11.962;2023-09-12T00:24:00;13.07;;;5.85;;
13335;SDS011;6737;51.480;11.962;2023-09-12T00:26:26;9.07;;;5.50;;
13335;SDS011;6737;51.480;11.962;2023-09-12T00:28:52;9.68;;;5.97;;
13335;SDS011;6737;51.480;11.962;2023-09-12T00:31:18;12.07;;;6.35;;
13335;SDS011;6737;51.480;11.962;2023-09-12T00:33:43;11.02;;;5.75;;
13335;SDS011;6737;51.480;11.962;2023-09-12T00:36:09;13.10;;;6.15;;
13335;SDS011;6737;51.480;11.962;2023-09-12T00:38:35;9.38;;;6.00;;
13335;SDS011;6737;51.480;11.962;2023-09-12T00:41:01;11.77;;;6.50;;
13335;SDS011;6737;51.480;11.962;2023-09-12T00:43:27;10.30;;;6.43;;
13335;SDS011;6737;51.480;11.962;2023-09-12T00:45:52;9.13;;;6.07;;
13335;SDS011;6737;51.480;11.962;2023-09-12T00:48:18;10.27;;;6.05;;
13335;SDS011;6737;51.480;11.962;2023-09-12T00:50:45;9.77;;;6.50;;
13335;SDS011;6737;51.480;11.962;2023-09-12T00:53:14;11.23;;;6.20;;
13335;SDS011;6737;51.480;11.962;2023-09-12T00:55:42;12.25;;;6.15;;
13335;SDS011;6737;51.480;11.962;2023-09-12T00:58:12;14.40;;;6.45;;
13335;SDS011;6737;51.480;11.962;2023-09-12T01:00:40;10.43;;;6.32;;
13335;SDS011;6737;51.480;11.962;2023-09-12T01:03:06;12.32;;;6.40;;
13335;SDS011;6737;51.480;11.962;2023-09-12T01:05:32;8.55;;;6.20;;
13335;SDS011;6737;51.480;11.962;2023-09-12T01:07:59;10.15;;;6.35;;
13335;SDS011;6737;51.480;11.962;2023-09-12T01:10:26;11.00;;;6.50;;
13335;SDS011;6737;51.480;11.962;2023-09-12T01:12:52;8.82;;;6.43;;
13335;SDS011;6737;51.480;11.962;2023-09-12T01:15:18;8.93;;;5.97;;
13335;SDS011;6737;51.480;11.962;2023-09-12T01:17:44;11.85;;;6.43;;
13335;SDS011;6737;51.480;11.962;2023-09-12T01:20:16;10.55;;;6.38;;
13335;SDS011;6737;51.480;11.962;2023-09-12T01:22:56;11.73;;;6.13;;
13335;SDS011;6737;51.480;11.962;2023-09-12T01:27:53;8.98;;;6.13;;
13335;SDS011;6737;51.480;11.962;2023-09-12T01:30:22;10.45;;;6.20;;
13335;SDS011;6737;51.480;11.962;2023-09-12T01:32:49;9.15;;;5.68;;
13335;SDS011;6737;51.480;11.962;2023-09-12T01:35:15;13.65;;;6.65;;
13335;SDS011;6737;51.480;11.962;2023-09-12T01:37:41;10.32;;;6.28;;
13335;SDS011;6737;51.480;11.962;2023-09-12T01:40:07;9.98;;;5.93;;
13335;SDS011;6737;51.480;11.962;2023-09-12T01:42:37;12.02;;;6.30;;
13335;SDS011;6737;51.480;11.962;2023-09-12T01:45:06;10.07;;;6.15;;
13335;SDS011;6737;51.480;11.962;2023-09-12T01:47:34;9.90;;;6.28;;
13335;SDS011;6737;51.480;11.962;2023-09-12T01:50:01;10.20;;;6.38;;
13335;SDS011;6737;51.480;11.962;2023-09-12T01:52:28;9.07;;;6.55;;
13335;SDS011;6737;51.480;11.962;2023-09-12T01:54:54;10.25;;;6.00;;
13335;SDS011;6737;51.480;11.962;2023-09-12T01:57:21;10.75;;;6.25;;
13335;SDS011;6737;51.480;11.962;2023-09-12T01:59:48;10.10;;;6.07;;
13335;SDS011;6737;51.480;11.962;2023-09-12T02:02:15;7.50;;;5.85;;
13335;SDS011;6737;51.480;11.962;2023-09-12T02:04:42;12.13;;;6.40;;
13335;SDS011;6737;51.480;11.962;2023-09-12T02:07:16;8.57;;;6.03;;
13335;SDS011;6737;51.480;11.962;2023-09-12T02:09:42;10.02;;;6.90;;
13335;SDS011;6737;51.480;11.962;2023-09-12T02:12:07;12.35;;;5.82;;
13335;SDS011;6737;51.480;11.962;2023-09-12T02:14:34;10.23;;;5.78;;
13335;SDS011;6737;51.480;11.962;2023-09-12T02:17:00;8.55;;;6.03;;
13335;SDS011;6737;51.480;11.962;2023-09-12T02:19:25;9.23;;;6.22;;
13335;SDS011;6737;51.480;11.962;2023-09-12T02:21:51;11.70;;;6.15;;
13335;SDS011;6737;51.480;11.962;2023-09-12T02:24:17;9.13;;;6.07;;
13335;SDS011;6737;51.480;11.962;2023-09-12T02:26:46;10.32;;;6.90;;
13335;SDS011;6737;51.480;11.962;2023-09-12T02:29:12;8.68;;;6.57;;
13335;SDS011;6737;51.480;11.962;2023-09-12T02:31:38;10.55;;;6.30;;
13335;SDS011;6737;51.480;11.962;2023-09-12T02:34:03;10.07;;;6.68;;
13335;SDS011;6737;51.480;11.962;2023-09-12T02:36:29;9.95;;;6.47;;
13335;SDS011;6737;51.480;11.962;2023-09-12T02:38:56;8.82;;;6.65;;
13335;SDS011;6737;51.480;11.962;2023-09-12T02:41:22;9.52;;;6.82;;
13335;SDS011;6737;51.480;11.962;2023-09-12T02:43:47;13.02;;;6.70;;
13335;SDS011;6737;51.480;11.962;2023-09-12T02:46:13;11.20;;;6.60;;
13335;SDS011;6737;51.480;11.962;2023-09-12T02:48:39;11.77;;;6.45;;
13335;SDS011;6737;51.480;11.962;2023-09-12T02:51:05;11.00;;;6.47;;
13335;SDS011;6737;51.480;11.962;2023-09-12T02:53:30;10.07;;;6.93;;
13335;SDS011;6737;51.480;11.962;2023-09-12T02:55:56;11.20;;;6.80;;
13335;SDS011;6737;51.480;11.962;2023-09-12T02:58:22;10.88;;;6.10;;
13335;SDS011;6737;51.480;11.962;2023-09-12T03:00:48;8.23;;;6.53;;
13335;SDS011;6737;51.480;11.962;2023-09-12T03:03:15;9.82;;;6.55;;
13335;SDS011;6737;51.480;11.962;2023-09-12T03:05:41;9.43;;;6.78;;
13335;SDS011;6737;51.480;11.962;2023-09-12T03:08:07;11.50;;;6.97;;
13335;SDS011;6737;51.480;11.962;2023-09-12T03:10:33;13.00;;;7.25;;
13335;SDS011;6737;51.480;11.962;2023-09-12T03:12:59;14.85;;;6.93;;
13335;SDS011;6737;51.480;11.962;2023-09-12T03:15:25;11.40;;;6.35;;
13335;SDS011;6737;51.480;11.962;2023-09-12T03:17:50;11.32;;;6.70;;
13335;SDS011;6737;51.480;11.962;2023-09-12T03:20:16;7.82;;;6.57;;
13335;SDS011;6737;51.480;11.962;2023-09-12T03:22:42;9.40;;;6.60;;
13335;SDS011;6737;51.480;11.962;2023-09-12T03:25:08;13.00;;;6.85;;
13335;SDS011;6737;51.480;11.962;2023-09-12T03:27:33;11.38;;;7.05;;
13335;SDS011;6737;51.480;11.962;2023-09-12T03:29:59;9.32;;;6.60;;
13335;SDS011;6737;51.480;11.962;2023-09-12T03:32:25;9.00;;;7.18;;
13335;SDS011;6737;51.480;11.962;2023-09-12T03:34:51;12.65;;;7.35;;
13335;SDS011;6737;51.480;11.962;2023-09-12T03:37:16;10.68;;;7.30;;
13335;SDS011;6737;51.480;11.962;2023-09-12T03:39:42;10.90;;;7.10;;
13335;SDS011;6737;51.480;11.962;2023-09-12T03:42:08;10.25;;;7.53;;
13335;SDS011;6737;51.480;11.962;2023-09-12T03:44:34;9.23;;;7.18;;
13335;SDS011;6737;51.480;11.962;2023-09-12T03:46:59;12.25;;;7.68;;
13335;SDS011;6737;51.480;11.962;2023-09-12T03:49:25;12.15;;;7.45;;
13335;SDS011;6737;51.480;11.962;2023-09-12T03:51:53;11.48;;;7.07;;
13335;SDS011;6737;51.480;11.962;2023-09-12T03:54:19;13.02;;;6.70;;
13335;SDS011;6737;51.480;11.962;2023-09-12T03:56:44;13.35;;;7.47;;
13335;SDS011;6737;51.480;11.962;2023-09-12T03:59:10;12.05;;;7.30;;
13335;SDS011;6737;51.480;11.962;2023-09-12T04:01:37;11.15;;;6.90;;
13335;SDS011;6737;51.480;11.962;2023-09-12T04:04:03;10.68;;;7.30;;
13335;SDS011;6737;51.480;11.962;2023-09-12T04:06:28;11.25;;;7.07;;
13335;SDS011;6737;51.480;11.962;2023-09-12T04:08:54;10.82;;;6.60;;
13335;SDS011;6737;51.480;11.962;2023-09-12T04:11:20;14.73;;;7.22;;
13335;SDS011;6737;51.480;11.962;2023-09-12T04:13:46;14.13;;;7.18;;
13335;SDS011;6737;51.480;11.962;2023-09-12T04:16:12;16.05;;;7.72;;
13335;SDS011;6737;51.480;11.962;2023-09-12T04:18:38;14.65;;;7.43;;
13335;SDS011;6737;51.480;11.962;2023-09-12T04:21:03;12.63;;;6.80;;
13335;SDS011;6737;51.480;11.962;2023-09-12T04:23:29;14.65;;;7.30;;
13335;SDS011;6737;51.480;11.962;2023-09-12T04:25:55;12.07;;;6.70;;
13335;SDS011;6737;51.480;11.962;2023-09-12T04:28:21;11.82;;;6.85;;
13335;SDS011;6737;51.480;11.962;2023-09-12T04:30:46;13.48;;;6.82;;
13335;SDS011;6737;51.480;11.962;2023-09-12T04:33:12;10.80;;;6.82;;
13335;SDS011;6737;51.480;11.962;2023-09-12T04:35:38;10.65;;;6.75;;
13335;SDS011;6737;51.480;11.962;2023-09-12T04:38:04;10.52;;;6.32;;
13335;SDS011;6737;51.480;11.962;2023-09-12T04:40:30;10.45;;;6.30;;
13335;SDS011;6737;51.480;11.962;2023-09-12T04:42:56;10.35;;;6.78;;
13335;SDS011;6737;51.480;11.962;2023-09-12T04:45:22;15.65;;;7.63;;
13335;SDS011;6737;51.480;11.962;2023-09-12T04:47:48;11.48;;;6.80;;
13335;SDS011;6737;51.480;11.962;2023-09-12T04:50:13;14.77;;;7.20;;
13335;SDS011;6737;51.480;11.962;2023-09-12T04:52:39;11.30;;;7.15;;
13335;SDS011;6737;51.480;11.962;2023-09-12T04:55:05;11.40;;;7.15;;
13335;SDS011;6737;51.480;11.962;2023-09-12T04:57:31;15.50;;;7.50;;
13335;SDS011;6737;51.480;11.962;2023-09-12T04:59:58;10.27;;;6.55;;
13335;SDS011;6737;51.480;11.962;2023-09-12T05:02:24;11.57;;;6.82;;
13335;SDS011;6737;51.480;11.962;2023-09-12T05:04:50;10.48;;;6.50;;
13335;SDS011;6737;51.480;11.962;2023-09-12T05:07:17;12.30;;;6.43;;
13335;SDS011;6737;51.480;11.962;2023-09-12T05:09:42;12.40;;;6.88;;
13335;SDS011;6737;51.480;11.962;2023-09-12T05:12:08;11.68;;;6.72;;
13335;SDS011;6737;51.480;11.962;2023-09-12T05:14:34;14.75;;;6.90;;
13335;SDS011;6737;51.480;11.962;2023-09-12T05:17:00;10.82;;;7.20;;
13335;SDS011;6737;51.480;11.962;2023-09-12T05:19:27;12.07;;;7.15;;
13335;SDS011;6737;51.480;11.962;2023-09-12T05:21:55;12.23;;;7.10;;
13335;SDS011;6737;51.480;11.962;2023-09-12T05:24:20;11.55;;;7.90;;
13335;SDS011;6737;51.480;11.962;2023-09-12T05:26:46;13.38;;;7.50;;
13335;SDS011;6737;51.480;11.962;2023-09-12T05:29:14;10.05;;;7.15;;
13335;SDS011;6737;51.480;11.962;2023-09-12T05:31:40;14.02;;;7.93;;
13335;SDS011;6737;51.480;11.962;2023-09-12T05:34:05;18.13;;;8.93;;
13335;SDS011;6737;51.480;11.962;2023-09-12T05:36:31;17.15;;;7.85;;
13335;SDS011;6737;51.480;11.962;2023-09-12T05:38:57;15.35;;;8.43;;
13335;SDS011;6737;51.480;11.962;2023-09-12T05:41:23;13.93;;;8.15;;
13335;SDS011;6737;51.480;11.962;2023-09-12T05:43:49;14.02;;;7.97;;
13335;SDS011;6737;51.480;11.962;2023-09-12T05:46:15;15.88;;;8.20;;
13335;SDS011;6737;51.480;11.962;2023-09-12T05:48:40;9.95;;;7.53;;
13335;SDS011;6737;51.480;11.962;2023-09-12T05:51:06;11.95;;;7.88;;
13335;SDS011;6737;51.480;11.962;2023-09-12T05:53:32;14.45;;;8.00;;
13335;SDS011;6737;51.480;11.962;2023-09-12T05:55:58;12.23;;;7.15;;
13335;SDS011;6737;51.480;11.962;2023-09-12T05:58:23;17.23;;;7.63;;
13335;SDS011;6737;51.480;11.962;2023-09-12T06:00:49;12.45;;;7.95;;
13335;SDS011;6737;51.480;11.962;2023-09-12T06:03:16;13.73;;;8.35;;
13335;SDS011;6737;51.480;11.962;2023-09-12T06:05:41;17.23;;;8.15;;
13335;SDS011;6737;51.480;11.962;2023-09-12T06:08:07;17.85;;;8.35;;
13335;SDS011;6737;51.480;11.962;2023-09-12T06:10:33;15.18;;;9.02;;
13335;SDS011;6737;51.480;11.962;2023-09-12T06:12:59;15.52;;;8.70;;
13335;SDS011;6737;51.480;11.962;2023-09-12T06:15:24;19.23;;;8.32;;
13335;SDS011;6737;51.480;11.962;2023-09-12T06:17:50;15.10;;;8.20;;
13335;SDS011;6737;51.480;11.962;2023-09-12T06:20:16;18.13;;;8.05;;
13335;SDS011;6737;51.480;11.962;2023-09-12T06:22:42;17.88;;;8.32;;
13335;SDS011;6737;51.480;11.962;2023-09-12T06:25:08;16.17;;;8.70;;
13335;SDS011;6737;51.480;11.962;2023-09-12T06:27:34;19.42;;;9.20;;
13335;SDS011;6737;51.480;11.962;2023-09-12T06:30:00;13.05;;;8.30;;
13335;SDS011;6737;51.480;11.962;2023-09-12T06:32:27;17.60;;;8.85;;
13335;SDS011;6737;51.480;11.962;2023-09-12T06:34:53;18.90;;;9.43;;
13335;SDS011;6737;51.480;11.962;2023-09-12T06:37:18;17.02;;;8.77;;
13335;SDS011;6737;51.480;11.962;2023-09-12T06:39:44;17.73;;;8.77;;
13335;SDS011;6737;51.480;11.962;2023-09-12T06:42:10;19.23;;;8.60;;
13335;SDS011;6737;51.480;11.962;2023-09-12T06:44:36;14.75;;;8.85;;
13335;SDS011;6737;51.480;11.962;2023-09-12T06:47:03;16.10;;;8.70;;
13335;SDS011;6737;51.480;11.962;2023-09-12T06:49:30;16.83;;;8.93;;
13335;SDS011;6737;51.480;11.962;2023-09-12T06:51:57;21.60;;;9.63;;
13335;SDS011;6737;51.480;11.962;2023-09-12T06:54:23;14.80;;;8.57;;
13335;SDS011;6737;51.480;11.962;2023-09-12T06:56:49;15.75;;;9.80;;
13335;SDS011;6737;51.480;11.962;2023-09-12T06:59:14;16.92;;;9.10;;
13335;SDS011;6737;51.480;11.962;2023-09-12T07:01:40;15.20;;;8.05;;
13335;SDS011;6737;51.480;11.962;2023-09-12T07:04:06;18.63;;;8.40;;
13335;SDS011;6737;51.480;11.962;2023-09-12T07:06:32;20.77;;;9.50;;
13335;SDS011;6737;51.480;11.962;2023-09-12T07:08:58;17.20;;;9.00;;
13335;SDS011;6737;51.480;11.962;2023-09-12T07:11:24;24.17;;;9.32;;
13335;SDS011;6737;51.480;11.962;2023-09-12T07:13:50;15.43;;;8.35;;
13335;SDS011;6737;51.480;11.962;2023-09-12T07:16:16;18.15;;;9.75;;
13335;SDS011;6737;51.480;11.962;2023-09-12T07:18:42;15.60;;;9.05;;
13335;SDS011;6737;51.480;11.962;2023-09-12T07:21:08;20.48;;;9.75;;
13335;SDS011;6737;51.480;11.962;2023-09-12T07:23:36;14.23;;;9.73;;
13335;SDS011;6737;51.480;11.962;2023-09-12T07:26:02;18.25;;;9.57;;
13335;SDS011;6737;51.480;11.962;2023-09-12T07:28:27;22.27;;;10.45;;
13335;SDS011;6737;51.480;11.962;2023-09-12T07:30:55;17.25;;;10.82;;
13335;SDS011;6737;51.480;11.962;2023-09-12T07:33:22;20.63;;;11.00;;
13335;SDS011;6737;51.480;11.962;2023-09-12T07:35:48;18.15;;;11.38;;
13335;SDS011;6737;51.480;11.962;2023-09-12T07:38:17;20.83;;;10.93;;
13335;SDS011;6737;51.480;11.962;2023-09-12T07:40:45;18.73;;;11.25;;
13335;SDS011;6737;51.480;11.962;2023-09-12T07:43:11;18.85;;;11.00;;
13335;SDS011;6737;51.480;11.962;2023-09-12T07:45:37;19.55;;;11.50;;
13335;SDS011;6737;51.480;11.962;2023-09-12T07:48:06;17.38;;;10.48;;
13335;SDS011;6737;51.480;11.962;2023-09-12T07:50:33;17.20;;;10.43;;
13335;SDS011;6737;51.480;11.962;2023-09-12T07:52:59;20.65;;;11.52;;
13335;SDS011;6737;51.480;11.962;2023-09-12T07:55:25;22.40;;;11.38;;
13335;SDS011;6737;51.480;11.962;2023-09-12T07:57:55;19.38;;;11.07;;
13335;SDS011;6737;51.480;11.962;2023-09-12T08:00:21;16.83;;;11.23;;
13335;SDS011;6737;51.480;11.962;2023-09-12T08:02:47;23.05;;;11.38;;
13335;SDS011;6737;51.480;11.962;2023-09-12T08:05:12;17.52;;;12.75;;
13335;SDS011;6737;51.480;11.962;2023-09-12T08:07:38;18.67;;;12.93;;
13335;SDS011;6737;51.480;11.962;2023-09-12T08:10:04;22.90;;;12.77;;
13335;SDS011;6737;51.480;11.962;2023-09-12T08:12:30;19.13;;;12.10;;
13335;SDS011;6737;51.480;11.962;2023-09-12T08:14:56;17.00;;;13.15;;
13335;SDS011;6737;51.480;11.962;2023-09-12T08:17:22;17.25;;;13.02;;
13335;SDS011;6737;51.480;11.962;2023-09-12T08:19:48;18.30;;;13.52;;
13335;SDS011;6737;51.480;11.962;2023-09-12T08:22:14;22.52;;;12.65;;
13335;SDS011;6737;51.480;11.962;2023-09-12T08:24:40;21.63;;;13.45;;
13335;SDS011;6737;51.480;11.962;2023-09-12T08:27:07;16.35;;;11.50;;
13335;SDS011;6737;51.480;11.962;2023-09-12T08:29:34;17.27;;;12.23;;
13335;SDS011;6737;51.480;11.962;2023-09-12T08:32:01;20.65;;;13.02;;
13335;SDS011;6737;51.480;11.962;2023-09-12T08:34:27;20.05;;;12.05;;
13335;SDS011;6737;51.480;11.962;2023-09-12T08:36:52;16.55;;;12.20;;
13335;SDS011;6737;51.480;11.962;2023-09-12T08:39:26;21.45;;;11.88;;
13335;SDS011;6737;51.480;11.962;2023-09-12T08:41:53;20.58;;;12.20;;
13335;SDS011;6737;51.480;11.962;2023-09-12T08:44:19;20.98;;;11.55;;
13335;SDS011;6737;51.480;11.962;2023-09-12T08:46:46;18.25;;;11.82;;
13335;SDS011;6737;51.480;11.962;2023-09-12T08:49:12;17.92;;;10.35;;
13335;SDS011;6737;51.480;11.962;2023-09-12T08:51:39;18.10;;;9.95;;
13335;SDS011;6737;51.480;11.962;2023-09-12T08:54:06;23.92;;;10.07;;
13335;SDS011;6737;51.480;11.962;2023-09-12T08:56:34;15.80;;;10.10;;
13335;SDS011;6737;51.480;11.962;2023-09-12T08:59:03;20.92;;;10.20;;
13335;SDS011;6737;51.480;11.962;2023-09-12T09:01:32;16.38;;;9.60;;
13335;SDS011;6737;51.480;11.962;2023-09-12T09:04:01;21.33;;;9.90;;
13335;SDS011;6737;51.480;11.962;2023-09-12T09:06:32;16.15;;;9.52;;
13335;SDS011;6737;51.480;11.962;2023-09-12T09:09:04;17.10;;;9.32;;
13335;SDS011;6737;51.480;11.962;2023-09-12T09:11:31;22.58;;;9.60;;
13335;SDS011;6737;51.480;11.962;2023-09-12T09:13:57;20.58;;;9.50;;
13335;SDS011;6737;51.480;11.962;2023-09-12T09:16:23;17.95;;;9.00;;
13335;SDS011;6737;51.480;11.962;2023-09-12T09:18:59;19.20;;;9.80;;
13335;SDS011;6737;51.480;11.962;2023-09-12T09:21:27;18.42;;;8.70;;
13335;SDS011;6737;51.480;11.962;2023-09-12T09:23:58;23.55;;;9.02;;
13335;SDS011;6737;51.480;11.962;2023-09-12T09:29:10;11.90;;;7.60;;
13335;SDS011;6737;51.480;11.962;2023-09-12T09:31:44;12.45;;;6.70;;
13335;SDS011;6737;51.480;11.962;2023-09-12T09:34:12;16.73;;;7.25;;
13335;SDS011;6737;51.480;11.962;2023-09-12T09:36:42;9.98;;;6.47;;
13335;SDS011;6737;51.480;11.962;2023-09-12T09:39:09;13.93;;;6.40;;
13335;SDS011;6737;51.480;11.962;2023-09-12T09:41:36;7.30;;;6.00;;
13335;SDS011;6737;51.480;11.962;2023-09-12T09:44:04;8.77;;;5.07;;
13335;SDS011;6737;51.480;11.962;2023-09-12T09:46:31;13.05;;;5.45;;
13335;SDS011;6737;51.480;11.962;2023-09-12T09:48:58;12.48;;;5.10;;
13335;SDS011;6737;51.480;11.962;2023-09-12T09:51:25;8.82;;;4.55;;
13335;SDS011;6737;51.480;11.962;2023-09-12T09:53:51;6.38;;;3.97;;
13335;SDS011;6737;51.480;11.962;2023-09-12T09:56:23;9.88;;;4.47;;
13335;SDS011;6737;51.480;11.962;2023-09-12T09:58:55;11.23;;;4.50;;
13335;SDS011;6737;51.480;11.962;2023-09-12T10:01:28;5.90;;;4.32;;
13335;SDS011;6737;51.480;11.962;2023-09-12T10:03:59;9.70;;;4.70;;
13335;SDS011;6737;51.480;11.962;2023-09-12T10:06:26;7.75;;;4.40;;
13335;SDS011;6737;51.480;11.962;2023-09-12T10:08:54;6.80;;;4.25;;
13335;SDS011;6737;51.480;11.962;2023-09-12T10:11:24;8.02;;;4.50;;
13335;SDS011;6737;51.480;11.962;2023-09-12T10:13:54;7.70;;;4.40;;
13335;SDS011;6737;51.480;11.962;2023-09-12T10:16:25;6.35;;;4.53;;
13335;SDS011;6737;51.480;11.962;2023-09-12T10:24:34;8.63;;;4.68;;
13335;SDS011;6737;51.480;11.962;2023-09-12T10:27:01;8.30;;;4.38;;
13335;SDS011;6737;51.480;11.962;2023-09-12T10:29:29;10.75;;;4.50;;
13335;SDS011;6737;51.480;11.962;2023-09-12T10:31:57;9.55;;;4.38;;
13335;SDS011;6737;51.480;11.962;2023-09-12T10:34:24;11.30;;;4.88;;
13335;SDS011;6737;51.480;11.962;2023-09-12T10:36:51;8.25;;;4.30;;
13335;SDS011;6737;51.480;11.962;2023-09-12T10:39:20;7.00;;;4.50;;
13335;SDS011;6737;51.480;11.962;2023-09-12T10:41:48;7.30;;;4.45;;
13335;SDS011;6737;51.480;11.962;2023-09-12T10:44:17;9.77;;;4.57;;
13335;SDS011;6737;51.480;11.962;2023-09-12T10:46:43;7.38;;;4.40;;
13335;SDS011;6737;51.480;11.962;2023-09-12T10:49:12;8.30;;;4.53;;
13335;SDS011;6737;51.480;11.962;2023-09-12T10:51:40;11.13;;;5.55;;
13335;SDS011;6737;51.480;11.962;2023-09-12T10:54:12;8.68;;;4.88;;
13335;SDS011;6737;51.480;11.962;2023-09-12T10:57:01;7.22;;;4.60;;
13335;SDS011;6737;51.480;11.962;2023-09-12T10:59:31;10.20;;;4.90;;
13335;SDS011;6737;51.480;11.962;2023-09-12T11:04:57;7.43;;;4.90;;
13335;SDS011;6737;51.480;11.962;2023-09-12T11:12:41;9.07;;;4.80;;
13335;SDS011;6737;51.480;11.962;2023-09-12T11:15:08;7.80;;;4.70;;
13335;SDS011;6737;51.480;11.962;2023-09-12T11:17:38;9.43;;;4.97;;
13335;SDS011;6737;51.480;11.962;2023-09-12T11:20:08;7.47;;;4.80;;
13335;SDS011;6737;51.480;11.962;2023-09-12T11:22:42;10.52;;;4.50;;
13335;SDS011;6737;51.480;11.962;2023-09-12T11:25:16;10.60;;;4.65;;
13335;SDS011;6737;51.480;11.962;2023-09-12T11:30:23;8.07;;;4.65;;
13335;SDS011;6737;51.480;11.962;2023-09-12T11:32:51;11.45;;;4.80;;
13335;SDS011;6737;51.480;11.962;2023-09-12T11:35:25;9.30;;;4.25;;
13335;SDS011;6737;51.480;11.962;2023-09-12T11:37:58;8.95;;;4.45;;
13335;SDS011;6737;51.480;11.962;2023-09-12T11:40:26;9.57;;;4.50;;
13335;SDS011;6737;51.480;11.962;2023-09-12T11:42:58;9.48;;;4.93;;
13335;SDS011;6737;51.480;11.962;2023-09-12T11:45:24;6.55;;;3.97;;
13335;SDS011;6737;51.480;11.962;2023-09-12T11:47:50;9.18;;;4.53;;
13335;SDS011;6737;51.480;11.962;2023-09-12T11:50:26;9.10;;;4.65;;
13335;SDS011;6737;51.480;11.962;2023-09-12T11:53:02;9.48;;;4.63;;
13335;SDS011;6737;51.480;11.962;2023-09-12T11:55:33;7.40;;;4.38;;
13335;SDS011;6737;51.480;11.962;2023-09-12T11:58:07;12.07;;;4.30;;
13335;SDS011;6737;51.480;11.962;2023-09-12T12:00:33;7.32;;;4.60;;
13335;SDS011;6737;51.480;11.962;2023-09-12T12:02:59;14.27;;;4.55;;
13335;SDS011;6737;51.480;11.962;2023-09-12T12:05:25;8.32;;;4.60;;
13335;SDS011;6737;51.480;11.962;2023-09-12T12:07:51;12.35;;;4.78;;
13335;SDS011;6737;51.480;11.962;2023-09-12T12:10:17;8.38;;;5.10;;
13335;SDS011;6737;51.480;11.962;2023-09-12T12:12:44;10.13;;;5.00;;
13335;SDS011;6737;51.480;11.962;2023-09-12T12:15:13;8.10;;;4.90;;
13335;SDS011;6737;51.480;11.962;2023-09-12T12:17:42;10.02;;;4.90;;
13335;SDS011;6737;51.480;11.962;2023-09-12T12:20:08;11.77;;;5.10;;
13335;SDS011;6737;51.480;11.962;2023-09-12T12:22:36;12.73;;;5.25;;
13335;SDS011;6737;51.480;11.962;2023-09-12T12:25:06;10.60;;;5.13;;
13335;SDS011;6737;51.480;11.962;2023-09-12T12:27:34;12.68;;;5.00;;
13335;SDS011;6737;51.480;11.962;2023-09-12T12:30:02;9.38;;;4.95;;
13335;SDS011;6737;51.480;11.962;2023-09-12T12:32:28;9.25;;;5.07;;
13335;SDS011;6737;51.480;11.962;2023-09-12T12:34:53;9.45;;;4.50;;
13335;SDS011;6737;51.480;11.962;2023-09-12T12:37:19;11.48;;;5.32;;
13335;SDS011;6737;51.480;11.962;2023-09-12T12:39:45;6.40;;;4.47;;
13335;SDS011;6737;51.480;11.962;2023-09-12T12:42:11;11.65;;;5.05;;
13335;SDS011;6737;51.480;11.962;2023-09-12T12:44:37;11.00;;;4.95;;
13335;SDS011;6737;51.480;11.962;2023-09-12T12:47:06;9.70;;;4.80;;
13335;SDS011;6737;51.480;11.962;2023-09-12T12:49:37;9.60;;;4.63;;
13335;SDS011;6737;51.480;11.962;2023-09-12T12:52:04;8.13;;;4.97;;
13335;SDS011;6737;51.480;11.962;2023-09-12T12:54:33;7.72;;;4.88;;
13335;SDS011;6737;51.480;11.962;2023-09-12T12:57:00;12.27;;;5.10;;
13335;SDS011;6737;51.480;11.962;2023-09-12T12:59:26;11.75;;;5.15;;
13335;SDS011;6737;51.480;11.962;2023-09-12T13:01:55;9.95;;;4.80;;
13335;SDS011;6737;51.480;11.962;2023-09-12T13:04:21;10.95;;;4.80;;
13335;SDS011;6737;51.480;11.962;2023-09-12T13:06:48;14.05;;;4.65;;
13335;SDS011;6737;51.480;11.962;2023-09-12T13:09:14;10.13;;;4.75;;
13335;SDS011;6737;51.480;11.962;2023-09-12T13:11:42;13.57;;;5.30;;
13335;SDS011;6737;51.480;11.962;2023-09-12T13:14:08;8.90;;;4.57;;
13335;SDS011;6737;51.480;11.962;2023-09-12T13:16:36;10.25;;;4.63;;
13335;SDS011;6737;51.480;11.962;2023-09-12T13:19:03;12.70;;;4.97;;
13335;SDS011;6737;51.480;11.962;2023-09-12T13:21:29;10.50;;;4.85;;
13335;SDS011;6737;51.480;11.962;2023-09-12T13:23:57;9.45;;;4.70;;
13335;SDS011;6737;51.480;11.962;2023-09-12T13:26:22;12.48;;;5.05;;
13335;SDS011;6737;51.480;11.962;2023-09-12T13:28:48;8.25;;;4.63;;
13335;SDS011;6737;51.480;11.962;2023-09-12T13:31:14;9.50;;;5.38;;
13335;SDS011;6737;51.480;11.962;2023-09-12T13:33:40;12.40;;;5.38;;
13335;SDS011;6737;51.480;11.962;2023-09-12T13:36:07;12.55;;;4.95;;
13335;SDS011;6737;51.480;11.962;2023-09-12T13:38:34;11.00;;;5.32;;
13335;SDS011;6737;51.480;11.962;2023-09-12T13:40:59;9.73;;;4.70;;
13335;SDS011;6737;51.480;11.962;2023-09-12T13:43:25;10.93;;;5.05;;
13335;SDS011;6737;51.480;11.962;2023-09-12T13:45:51;9.77;;;4.70;;
13335;SDS011;6737;51.480;11.962;2023-09-12T13:48:17;12.20;;;4.68;;
13335;SDS011;6737;51.480;11.962;2023-09-12T13:50:43;11.98;;;5.32;;
13335;SDS011;6737;51.480;11.962;2023-09-12T13:53:09;10.95;;;4.95;;
13335;SDS011;6737;51.480;11.962;2023-09-12T13:55:35;9.50;;;5.10;;
13335;SDS011;6737;51.480;11.962;2023-09-12T13:58:02;11.30;;;5.00;;
13335;SDS011;6737;51.480;11.962;2023-09-12T14:00:29;9.30;;;5.40;;
13335;SDS011;6737;51.480;11.962;2023-09-12T14:02:56;10.15;;;5.20;;
13335;SDS011;6737;51.480;11.962;2023-09-12T14:05:22;8.95;;;5.13;;
13335;SDS011;6737;51.480;11.962;2023-09-12T14:07:49;10.40;;;4.82;;
13335;SDS011;6737;51.480;11.962;2023-09-12T14:10:16;9.38;;;4.90;;
13335;SDS011;6737;51.480;11.962;2023-09-12T14:12:42;8.23;;;4.97;;
13335;SDS011;6737;51.480;11.962;2023-09-12T14:15:10;8.70;;;5.05;;
13335;SDS011;6737;51.480;11.962;2023-09-12T14:17:39;12.02;;;4.70;;
13335;SDS011;6737;51.480;11.962;2023-09-12T14:20:05;7.97;;;4.93;;
13335;SDS011;6737;51.480;11.962;2023-09-12T14:22:32;13.48;;;5.47;;
13335;SDS011;6737;51.480;11.962;2023-09-12T14:24:58;10.55;;;5.15;;
13335;SDS011;6737;51.480;11.962;2023-09-12T14:27:24;11.35;;;4.90;;
13335;SDS011;6737;51.480;11.962;2023-09-12T14:29:50;12.63;;;5.43;;
13335;SDS011;6737;51.480;11.962;2023-09-12T14:32:16;12.73;;;5.38;;
13335;SDS011;6737;51.480;11.962;2023-09-12T14:34:41;12.45;;;5.38;;
13335;SDS011;6737;51.480;11.962;2023-09-12T14:37:07;11.98;;;5.50;;
13335;SDS011;6737;51.480;11.962;2023-09-12T14:39:33;12.60;;;5.43;;
13335;SDS011;6737;51.480;11.962;2023-09-12T14:41:59;10.75;;;5.18;;
13335;SDS011;6737;51.480;11.962;2023-09-12T14:44:27;11.30;;;5.45;;
13335;SDS011;6737;51.480;11.962;2023-09-12T14:46:53;14.95;;;5.53;;
13335;SDS011;6737;51.480;11.962;2023-09-12T14:49:20;14.05;;;5.53;;
13335;SDS011;6737;51.480;11.962;2023-09-12T14:51:45;9.95;;;5.03;;
13335;SDS011;6737;51.480;11.962;2023-09-12T14:54:12;11.80;;;5.57;;
13335;SDS011;6737;51.480;11.962;2023-09-12T14:56:38;12.18;;;5.95;;